sensor_id;sensor_type;location;lat;lon;timestamp;temperature;humidity
39677;DHT22;27789;50.840;4.386;2022-11-20T00:01:31;5.70;99.90
39677;DHT22;27789;50.840;4.386;2022-11-20T00:03:57;5.70;99.90
39677;DHT22;27789;50.840;4.386;2022-11-20T00:06:24;5.70;99.90
39677;DHT22;27789;50.840;4.386;2022-11-20T00:08:51;5.70;99.90
39677;DHT22;27789;50.840;4.386;2022-11-20T00:11:19;5.70;99.90
39677;DHT22;27789;50.840;4.386;2022-11-20T00:13:46;5.70;99.90
39677;DHT22;27789;50.840;4.386;2022-11-20T00:16:15;5.70;99.90
39677;DHT22;27789;50.840;4.386;2022-11-20T00:18:41;5.80;99.90
39677;DHT22;27789;50.840;4.386;2022-11-20T00:21:11;5.70;99.90
39677;DHT22;27789;50.840;4.386;2022-11-20T00:23:38;5.80;99.90
39677;DHT22;27789;50.840;4.386;2022-11-20T00:26:05;5.70;99.90
39677;DHT22;27789;50.840;4.386;2022-11-20T00:28:31;5.70;99.90
39677;DHT22;27789;50.840;4.386;2022-11-20T00:31:01;5.60;99.90
39677;DHT22;27789;50.840;4.386;2022-11-20T00:33:28;5.70;99.90
39677;DHT22;27789;50.840;4.386;2022-11-20T00:35:53;5.60;99.90
39677;DHT22;27789;50.840;4.386;2022-11-20T00:38:19;5.60;99.90
39677;DHT22;27789;50.840;4.386;2022-11-20T00:40:44;5.60;99.90
39677;DHT22;27789;50.840;4.386;2022-11-20T00:43:10;5.60;99.90
39677;DHT22;27789;50.840;4.386;2022-11-20T00:45:36;5.60;99.90
39677;DHT22;27789;50.840;4.386;2022-11-20T00:48:01;5.60;99.90
39677;DHT22;27789;50.840;4.386;2022-11-20T00:50:27;5.60;99.90
39677;DHT22;27789;50.840;4.386;2022-11-20T00:52:52;5.60;99.90
39677;DHT22;27789;50.840;4.386;2022-11-20T00:55:18;5.50;99.90
39677;DHT22;27789;50.840;4.386;2022-11-20T00:57:43;5.60;99.90
39677;DHT22;27789;50.840;4.386;2022-11-20T01:00:09;5.60;99.90
39677;DHT22;27789;50.840;4.386;2022-11-20T01:02:35;5.60;99.90
39677;DHT22;27789;50.840;4.386;2022-11-20T01:05:00;5.60;99.90
39677;DHT22;27789;50.840;4.386;2022-11-20T01:07:26;5.60;99.90
39677;DHT22;27789;50.840;4.386;2022-11-20T01:09:51;5.60;99.90
39677;DHT22;27789;50.840;4.386;2022-11-20T01:12:17;5.70;99.90
39677;DHT22;27789;50.840;4.386;2022-11-20T01:14:42;5.70;99.90
39677;DHT22;27789;50.840;4.386;2022-11-20T01:17:08;5.70;99.90
39677;DHT22;27789;50.840;4.386;2022-11-20T01:19:33;5.70;99.90
39677;DHT22;27789;50.840;4.386;2022-11-20T01:21:59;5.70;99.90
39677;DHT22;27789;50.840;4.386;2022-11-20T01:24:25;5.70;99.90
39677;DHT22;27789;50.840;4.386;2022-11-20T01:26:51;5.70;99.90
39677;DHT22;27789;50.840;4.386;2022-11-20T01:29:27;5.70;99.90
39677;DHT22;27789;50.840;4.386;2022-11-20T01:31:52;5.70;99.90
39677;DHT22;27789;50.840;4.386;2022-11-20T01:34:19;5.70;99.90
39677;DHT22;27789;50.840;4.386;2022-11-20T01:36:46;5.70;99.90
39677;DHT22;27789;50.840;4.386;2022-11-20T01:39:13;5.70;99.90
39677;DHT22;27789;50.840;4.386;2022-11-20T01:41:39;5.80;99.90
39677;DHT22;27789;50.840;4.386;2022-11-20T01:44:18;5.80;99.90
39677;DHT22;27789;50.840;4.386;2022-11-20T01:47:04;5.80;99.90
39677;DHT22;27789;50.840;4.386;2022-11-20T01:49:39;5.80;99.90
39677;DHT22;27789;50.840;4.386;2022-11-20T01:52:13;5.80;99.90
39677;DHT22;27789;50.840;4.386;2022-11-20T01:54:46;5.80;99.90
39677;DHT22;27789;50.840;4.386;2022-11-20T01:57:14;5.90;99.90
39677;DHT22;27789;50.840;4.386;2022-11-20T01:59:44;5.90;99.90
39677;DHT22;27789;50.840;4.386;2022-11-20T02:02:11;5.90;99.90
39677;DHT22;27789;50.840;4.386;2022-11-20T02:04:37;5.90;99.90
39677;DHT22;27789;50.840;4.386;2022-11-20T02:07:04;5.90;99.90
39677;DHT22;27789;50.840;4.386;2022-11-20T02:09:30;5.90;99.90
39677;DHT22;27789;50.840;4.386;2022-11-20T02:11:57;5.90;99.90
39677;DHT22;27789;50.840;4.386;2022-11-20T02:14:23;5.90;99.90
39677;DHT22;27789;50.840;4.386;2022-11-20T02:16:49;6.00;99.90
39677;DHT22;27789;50.840;4.386;2022-11-20T02:19:29;6.00;99.90
39677;DHT22;27789;50.840;4.386;2022-11-20T02:24:36;5.90;99.90
39677;DHT22;27789;50.840;4.386;2022-11-20T02:27:09;5.90;99.90
39677;DHT22;27789;50.840;4.386;2022-11-20T02:29:36;5.90;99.90
39677;DHT22;27789;50.840;4.386;2022-11-20T02:32:03;5.90;99.90
39677;DHT22;27789;50.840;4.386;2022-11-20T02:34:29;5.80;99.90
39677;DHT22;27789;50.840;4.386;2022-11-20T02:36:56;5.80;99.90
39677;DHT22;27789;50.840;4.386;2022-11-20T02:39:24;5.80;99.90
39677;DHT22;27789;50.840;4.386;2022-11-20T02:41:55;5.80;99.90
39677;DHT22;27789;50.840;4.386;2022-11-20T02:44:21;5.80;99.90
39677;DHT22;27789;50.840;4.386;2022-11-20T02:46:46;5.80;99.90
39677;DHT22;27789;50.840;4.386;2022-11-20T02:49:12;5.80;99.90
39677;DHT22;27789;50.840;4.386;2022-11-20T02:51:37;5.80;99.90
39677;DHT22;27789;50.840;4.386;2022-11-20T02:54:03;5.80;99.90
39677;DHT22;27789;50.840;4.386;2022-11-20T02:56:30;5.90;99.90
39677;DHT22;27789;50.840;4.386;2022-11-20T02:58:55;5.90;99.90
39677;DHT22;27789;50.840;4.386;2022-11-20T03:01:21;5.90;99.90
39677;DHT22;27789;50.840;4.386;2022-11-20T03:03:47;5.70;99.90
39677;DHT22;27789;50.840;4.386;2022-11-20T03:06:14;5.70;99.90
39677;DHT22;27789;50.840;4.386;2022-11-20T03:08:41;5.70;99.90
39677;DHT22;27789;50.840;4.386;2022-11-20T03:11:07;5.70;99.90
39677;DHT22;27789;50.840;4.386;2022-11-20T03:13:33;5.80;99.90
39677;DHT22;27789;50.840;4.386;2022-11-20T03:16:12;5.80;99.90
39677;DHT22;27789;50.840;4.386;2022-11-20T03:18:39;5.90;99.90
39677;DHT22;27789;50.840;4.386;2022-11-20T03:21:05;5.90;99.90
39677;DHT22;27789;50.840;4.386;2022-11-20T03:23:32;6.00;99.90
39677;DHT22;27789;50.840;4.386;2022-11-20T03:28:35;6.00;99.90
39677;DHT22;27789;50.840;4.386;2022-11-20T03:31:12;6.00;99.90
39677;DHT22;27789;50.840;4.386;2022-11-20T03:33:40;6.00;99.90
39677;DHT22;27789;50.840;4.386;2022-11-20T03:36:07;6.00;99.90
39677;DHT22;27789;50.840;4.386;2022-11-20T03:38:33;6.00;99.90
39677;DHT22;27789;50.840;4.386;2022-11-20T03:41:05;6.00;99.90
39677;DHT22;27789;50.840;4.386;2022-11-20T03:43:31;6.10;99.90
39677;DHT22;27789;50.840;4.386;2022-11-20T03:45:57;6.10;99.90
39677;DHT22;27789;50.840;4.386;2022-11-20T03:48:23;6.20;99.90
39677;DHT22;27789;50.840;4.386;2022-11-20T03:50:49;6.20;99.90
39677;DHT22;27789;50.840;4.386;2022-11-20T03:53:15;6.20;99.90
39677;DHT22;27789;50.840;4.386;2022-11-20T03:55:41;6.20;99.90
39677;DHT22;27789;50.840;4.386;2022-11-20T03:58:07;6.20;99.90
39677;DHT22;27789;50.840;4.386;2022-11-20T04:00:33;6.20;99.90
39677;DHT22;27789;50.840;4.386;2022-11-20T04:02:59;6.20;99.90
39677;DHT22;27789;50.840;4.386;2022-11-20T04:05:25;6.10;99.90
39677;DHT22;27789;50.840;4.386;2022-11-20T04:07:50;6.10;99.90
39677;DHT22;27789;50.840;4.386;2022-11-20T04:10:16;6.10;99.90
39677;DHT22;27789;50.840;4.386;2022-11-20T04:12:42;6.10;99.90
39677;DHT22;27789;50.840;4.386;2022-11-20T04:15:08;6.10;99.90
39677;DHT22;27789;50.840;4.386;2022-11-20T04:17:33;6.10;99.90
39677;DHT22;27789;50.840;4.386;2022-11-20T04:19:59;6.00;99.90
39677;DHT22;27789;50.840;4.386;2022-11-20T04:22:25;6.10;99.90
39677;DHT22;27789;50.840;4.386;2022-11-20T04:24:50;6.10;99.90
39677;DHT22;27789;50.840;4.386;2022-11-20T04:27:16;6.10;99.90
39677;DHT22;27789;50.840;4.386;2022-11-20T04:29:41;6.10;99.90
39677;DHT22;27789;50.840;4.386;2022-11-20T04:32:07;6.10;99.90
39677;DHT22;27789;50.840;4.386;2022-11-20T04:34:33;6.10;99.90
39677;DHT22;27789;50.840;4.386;2022-11-20T04:36:58;6.20;99.90
39677;DHT22;27789;50.840;4.386;2022-11-20T04:39:24;6.10;99.90
39677;DHT22;27789;50.840;4.386;2022-11-20T04:41:49;6.20;99.90
39677;DHT22;27789;50.840;4.386;2022-11-20T04:44:35;6.20;99.90
39677;DHT22;27789;50.840;4.386;2022-11-20T04:47:00;6.10;99.90
39677;DHT22;27789;50.840;4.386;2022-11-20T04:49:26;6.20;99.90
39677;DHT22;27789;50.840;4.386;2022-11-20T04:51:55;6.10;99.90
39677;DHT22;27789;50.840;4.386;2022-11-20T04:54:20;6.20;99.90
39677;DHT22;27789;50.840;4.386;2022-11-20T04:56:50;6.20;99.90
39677;DHT22;27789;50.840;4.386;2022-11-20T04:59:15;6.20;99.90
39677;DHT22;27789;50.840;4.386;2022-11-20T05:01:41;6.30;99.90
39677;DHT22;27789;50.840;4.386;2022-11-20T05:04:07;6.30;99.90
39677;DHT22;27789;50.840;4.386;2022-11-20T05:06:32;6.30;99.90
39677;DHT22;27789;50.840;4.386;2022-11-20T05:08:58;6.30;99.90
39677;DHT22;27789;50.840;4.386;2022-11-20T05:11:24;6.30;99.90
39677;DHT22;27789;50.840;4.386;2022-11-20T05:13:51;6.30;99.90
39677;DHT22;27789;50.840;4.386;2022-11-20T05:16:20;6.40;99.90
39677;DHT22;27789;50.840;4.386;2022-11-20T05:18:46;6.40;99.90
39677;DHT22;27789;50.840;4.386;2022-11-20T05:21:12;6.40;99.90
39677;DHT22;27789;50.840;4.386;2022-11-20T05:23:39;6.40;99.90
39677;DHT22;27789;50.840;4.386;2022-11-20T05:26:06;6.40;99.90
39677;DHT22;27789;50.840;4.386;2022-11-20T05:28:32;6.50;99.90
39677;DHT22;27789;50.840;4.386;2022-11-20T05:31:09;6.50;99.90
39677;DHT22;27789;50.840;4.386;2022-11-20T05:33:36;6.50;99.90
39677;DHT22;27789;50.840;4.386;2022-11-20T05:36:05;6.50;99.90
39677;DHT22;27789;50.840;4.386;2022-11-20T05:38:31;6.50;99.90
39677;DHT22;27789;50.840;4.386;2022-11-20T05:43:42;6.50;99.90
39677;DHT22;27789;50.840;4.386;2022-11-20T05:46:09;6.50;99.90
39677;DHT22;27789;50.840;4.386;2022-11-20T05:48:36;6.50;99.90
39677;DHT22;27789;50.840;4.386;2022-11-20T05:51:04;6.50;99.90
39677;DHT22;27789;50.840;4.386;2022-11-20T05:53:32;6.40;99.90
39677;DHT22;27789;50.840;4.386;2022-11-20T05:56:05;6.40;99.90
39677;DHT22;27789;50.840;4.386;2022-11-20T05:58:32;6.40;99.90
39677;DHT22;27789;50.840;4.386;2022-11-20T06:03:30;6.40;99.90
39677;DHT22;27789;50.840;4.386;2022-11-20T06:05:58;6.30;99.90
39677;DHT22;27789;50.840;4.386;2022-11-20T06:08:23;6.30;99.90
39677;DHT22;27789;50.840;4.386;2022-11-20T06:10:49;6.20;99.90
39677;DHT22;27789;50.840;4.386;2022-11-20T06:13:14;6.30;99.90
39677;DHT22;27789;50.840;4.386;2022-11-20T06:15:40;6.30;99.90
39677;DHT22;27789;50.840;4.386;2022-11-20T06:18:05;6.30;99.90
39677;DHT22;27789;50.840;4.386;2022-11-20T06:20:31;6.30;99.90
39677;DHT22;27789;50.840;4.386;2022-11-20T06:22:56;6.30;99.90
39677;DHT22;27789;50.840;4.386;2022-11-20T06:25:22;6.40;99.90
39677;DHT22;27789;50.840;4.386;2022-11-20T06:27:48;6.40;99.90
39677;DHT22;27789;50.840;4.386;2022-11-20T06:30:13;6.40;99.90
39677;DHT22;27789;50.840;4.386;2022-11-20T06:32:39;6.40;99.90
39677;DHT22;27789;50.840;4.386;2022-11-20T06:35:05;6.30;99.90
39677;DHT22;27789;50.840;4.386;2022-11-20T06:37:30;6.40;99.90
39677;DHT22;27789;50.840;4.386;2022-11-20T06:39:56;6.40;99.90
39677;DHT22;27789;50.840;4.386;2022-11-20T06:42:21;6.40;99.90
39677;DHT22;27789;50.840;4.386;2022-11-20T06:44:47;6.50;99.90
39677;DHT22;27789;50.840;4.386;2022-11-20T06:47:12;6.50;99.90
39677;DHT22;27789;50.840;4.386;2022-11-20T06:49:38;6.50;99.90
39677;DHT22;27789;50.840;4.386;2022-11-20T06:52:04;6.50;99.90
39677;DHT22;27789;50.840;4.386;2022-11-20T06:54:30;6.50;99.90
39677;DHT22;27789;50.840;4.386;2022-11-20T06:56:55;6.60;99.90
39677;DHT22;27789;50.840;4.386;2022-11-20T06:59:21;6.50;99.90
39677;DHT22;27789;50.840;4.386;2022-11-20T07:01:46;6.50;99.90
39677;DHT22;27789;50.840;4.386;2022-11-20T07:04:12;6.60;99.90
39677;DHT22;27789;50.840;4.386;2022-11-20T07:06:38;6.60;99.90
39677;DHT22;27789;50.840;4.386;2022-11-20T07:09:03;6.60;99.90
39677;DHT22;27789;50.840;4.386;2022-11-20T07:11:29;6.60;99.90
39677;DHT22;27789;50.840;4.386;2022-11-20T07:13:56;6.70;99.90
39677;DHT22;27789;50.840;4.386;2022-11-20T07:16:22;6.70;99.90
39677;DHT22;27789;50.840;4.386;2022-11-20T07:18:47;6.70;99.90
39677;DHT22;27789;50.840;4.386;2022-11-20T07:21:13;6.70;99.90
39677;DHT22;27789;50.840;4.386;2022-11-20T07:23:39;6.80;99.90
39677;DHT22;27789;50.840;4.386;2022-11-20T07:26:06;6.80;99.90
39677;DHT22;27789;50.840;4.386;2022-11-20T07:28:31;6.80;99.90
39677;DHT22;27789;50.840;4.386;2022-11-20T07:30:57;6.90;99.90
39677;DHT22;27789;50.840;4.386;2022-11-20T07:33:23;7.00;99.90
39677;DHT22;27789;50.840;4.386;2022-11-20T07:35:49;7.00;99.90
39677;DHT22;27789;50.840;4.386;2022-11-20T07:38:14;7.00;99.90
39677;DHT22;27789;50.840;4.386;2022-11-20T07:40:40;7.00;99.90
39677;DHT22;27789;50.840;4.386;2022-11-20T07:43:06;7.00;99.90
39677;DHT22;27789;50.840;4.386;2022-11-20T07:45:31;7.00;99.90
39677;DHT22;27789;50.840;4.386;2022-11-20T07:47:57;7.00;99.90
39677;DHT22;27789;50.840;4.386;2022-11-20T07:50:23;6.90;99.90
39677;DHT22;27789;50.840;4.386;2022-11-20T07:52:48;6.90;99.90
39677;DHT22;27789;50.840;4.386;2022-11-20T07:55:14;6.90;99.90
39677;DHT22;27789;50.840;4.386;2022-11-20T07:57:40;6.90;99.90
39677;DHT22;27789;50.840;4.386;2022-11-20T08:00:07;6.90;99.90
39677;DHT22;27789;50.840;4.386;2022-11-20T08:02:38;6.90;99.90
39677;DHT22;27789;50.840;4.386;2022-11-20T08:05:04;7.00;99.90
39677;DHT22;27789;50.840;4.386;2022-11-20T08:07:41;7.00;99.90
39677;DHT22;27789;50.840;4.386;2022-11-20T08:10:09;7.00;99.90
39677;DHT22;27789;50.840;4.386;2022-11-20T08:12:35;7.00;99.90
39677;DHT22;27789;50.840;4.386;2022-11-20T08:15:11;7.10;99.90
39677;DHT22;27789;50.840;4.386;2022-11-20T08:17:37;7.20;99.90
39677;DHT22;27789;50.840;4.386;2022-11-20T08:20:02;7.30;99.90
39677;DHT22;27789;50.840;4.386;2022-11-20T08:22:28;7.40;99.90
39677;DHT22;27789;50.840;4.386;2022-11-20T08:24:54;7.50;99.90
39677;DHT22;27789;50.840;4.386;2022-11-20T08:27:19;7.50;99.90
39677;DHT22;27789;50.840;4.386;2022-11-20T08:29:45;7.50;99.90
39677;DHT22;27789;50.840;4.386;2022-11-20T08:32:11;7.40;99.90
39677;DHT22;27789;50.840;4.386;2022-11-20T08:34:36;7.40;99.90
39677;DHT22;27789;50.840;4.386;2022-11-20T08:37:02;7.40;99.90
39677;DHT22;27789;50.840;4.386;2022-11-20T08:39:28;7.50;99.90
39677;DHT22;27789;50.840;4.386;2022-11-20T08:41:53;7.50;99.90
39677;DHT22;27789;50.840;4.386;2022-11-20T08:44:19;7.50;99.90
39677;DHT22;27789;50.840;4.386;2022-11-20T08:46:45;7.60;99.90
39677;DHT22;27789;50.840;4.386;2022-11-20T08:49:12;7.60;99.90
39677;DHT22;27789;50.840;4.386;2022-11-20T08:51:39;7.70;99.90
39677;DHT22;27789;50.840;4.386;2022-11-20T08:54:05;7.70;99.90
39677;DHT22;27789;50.840;4.386;2022-11-20T08:56:31;7.80;99.90
39677;DHT22;27789;50.840;4.386;2022-11-20T08:58:57;7.90;99.90
39677;DHT22;27789;50.840;4.386;2022-11-20T09:01:25;8.00;99.90
39677;DHT22;27789;50.840;4.386;2022-11-20T09:03:50;8.00;99.90
39677;DHT22;27789;50.840;4.386;2022-11-20T09:06:16;8.10;99.90
39677;DHT22;27789;50.840;4.386;2022-11-20T09:08:42;8.10;99.90
39677;DHT22;27789;50.840;4.386;2022-11-20T09:11:08;8.20;99.90
39677;DHT22;27789;50.840;4.386;2022-11-20T09:13:35;8.10;99.90
39677;DHT22;27789;50.840;4.386;2022-11-20T09:16:03;8.10;99.90
39677;DHT22;27789;50.840;4.386;2022-11-20T09:18:30;8.20;99.90
39677;DHT22;27789;50.840;4.386;2022-11-20T09:20:59;8.30;99.90
39677;DHT22;27789;50.840;4.386;2022-11-20T09:23:25;8.20;99.90
39677;DHT22;27789;50.840;4.386;2022-11-20T09:25:51;8.30;99.90
39677;DHT22;27789;50.840;4.386;2022-11-20T09:28:18;8.30;99.90
39677;DHT22;27789;50.840;4.386;2022-11-20T09:30:44;8.30;99.90
39677;DHT22;27789;50.840;4.386;2022-11-20T09:33:09;8.40;99.90
39677;DHT22;27789;50.840;4.386;2022-11-20T09:35:35;8.40;99.90
39677;DHT22;27789;50.840;4.386;2022-11-20T09:38:05;8.40;99.90
39677;DHT22;27789;50.840;4.386;2022-11-20T09:40:32;8.40;99.90
39677;DHT22;27789;50.840;4.386;2022-11-20T09:51:25;8.70;99.90
39677;DHT22;27789;50.840;4.386;2022-11-20T09:56:34;8.80;99.90
39677;DHT22;27789;50.840;4.386;2022-11-20T09:59:05;8.80;99.90
39677;DHT22;27789;50.840;4.386;2022-11-20T10:01:34;8.90;99.90
39677;DHT22;27789;50.840;4.386;2022-11-20T10:09:35;9.10;99.90
39677;DHT22;27789;50.840;4.386;2022-11-20T10:22:54;9.20;99.90
39677;DHT22;27789;50.840;4.386;2022-11-20T10:28:21;9.30;99.90
39677;DHT22;27789;50.840;4.386;2022-11-20T10:33:36;9.60;99.90
39677;DHT22;27789;50.840;4.386;2022-11-20T10:38:50;9.90;99.90
39677;DHT22;27789;50.840;4.386;2022-11-20T10:41:29;10.50;99.90
39677;DHT22;27789;50.840;4.386;2022-11-20T10:46:35;11.20;99.90
39677;DHT22;27789;50.840;4.386;2022-11-20T10:49:10;11.10;99.90
39677;DHT22;27789;50.840;4.386;2022-11-20T10:51:46;11.00;99.90
39677;DHT22;27789;50.840;4.386;2022-11-20T10:56:53;10.60;99.90
39677;DHT22;27789;50.840;4.386;2022-11-20T11:02:24;10.20;99.90
39677;DHT22;27789;50.840;4.386;2022-11-20T11:04:54;10.10;99.90
39677;DHT22;27789;50.840;4.386;2022-11-20T11:07:36;10.10;99.90
39677;DHT22;27789;50.840;4.386;2022-11-20T11:10:05;10.20;99.90
39677;DHT22;27789;50.840;4.386;2022-11-20T11:12:44;10.30;99.90
39677;DHT22;27789;50.840;4.386;2022-11-20T11:15:14;10.20;99.90
39677;DHT22;27789;50.840;4.386;2022-11-20T11:17:46;10.10;99.90
39677;DHT22;27789;50.840;4.386;2022-11-20T11:20:17;10.00;99.90
39677;DHT22;27789;50.840;4.386;2022-11-20T11:22:57;10.00;99.90
39677;DHT22;27789;50.840;4.386;2022-11-20T11:25:31;10.00;99.90
39677;DHT22;27789;50.840;4.386;2022-11-20T11:28:17;9.90;99.90
39677;DHT22;27789;50.840;4.386;2022-11-20T11:30:45;9.80;99.90
39677;DHT22;27789;50.840;4.386;2022-11-20T11:33:18;9.90;99.90
39677;DHT22;27789;50.840;4.386;2022-11-20T11:35:52;9.80;99.90
39677;DHT22;27789;50.840;4.386;2022-11-20T11:38:28;9.80;99.90
39677;DHT22;27789;50.840;4.386;2022-11-20T11:40:56;9.80;99.90
39677;DHT22;27789;50.840;4.386;2022-11-20T11:43:33;9.70;99.90
39677;DHT22;27789;50.840;4.386;2022-11-20T11:49:00;9.70;99.90
39677;DHT22;27789;50.840;4.386;2022-11-20T11:51:31;9.70;99.90
39677;DHT22;27789;50.840;4.386;2022-11-20T11:53:58;9.70;99.90
39677;DHT22;27789;50.840;4.386;2022-11-20T11:56:26;9.70;99.90
39677;DHT22;27789;50.840;4.386;2022-11-20T11:58:54;9.70;99.90
39677;DHT22;27789;50.840;4.386;2022-11-20T12:06:58;9.50;99.90
39677;DHT22;27789;50.840;4.386;2022-11-20T12:09:34;9.40;99.90
39677;DHT22;27789;50.840;4.386;2022-11-20T12:12:12;9.40;99.90
39677;DHT22;27789;50.840;4.386;2022-11-20T12:14:42;9.30;99.90
39677;DHT22;27789;50.840;4.386;2022-11-20T12:17:12;9.20;99.90
39677;DHT22;27789;50.840;4.386;2022-11-20T12:19:39;9.20;99.90
39677;DHT22;27789;50.840;4.386;2022-11-20T12:27:56;9.20;99.90
39677;DHT22;27789;50.840;4.386;2022-11-20T12:30:25;9.10;99.90
39677;DHT22;27789;50.840;4.386;2022-11-20T12:35:36;9.10;99.90
39677;DHT22;27789;50.840;4.386;2022-11-20T12:40:45;9.10;99.90
39677;DHT22;27789;50.840;4.386;2022-11-20T12:43:24;9.00;99.90
39677;DHT22;27789;50.840;4.386;2022-11-20T12:56:37;9.00;99.90
39677;DHT22;27789;50.840;4.386;2022-11-20T13:04:39;9.20;99.90
39677;DHT22;27789;50.840;4.386;2022-11-20T13:07:12;9.20;99.90
39677;DHT22;27789;50.840;4.386;2022-11-20T13:09:44;9.20;99.90
39677;DHT22;27789;50.840;4.386;2022-11-20T13:12:14;9.30;99.90
39677;DHT22;27789;50.840;4.386;2022-11-20T13:14:54;9.20;99.90
39677;DHT22;27789;50.840;4.386;2022-11-20T13:17:45;9.10;99.90
39677;DHT22;27789;50.840;4.386;2022-11-20T13:20:18;9.10;99.90
39677;DHT22;27789;50.840;4.386;2022-11-20T13:22:51;9.00;99.90
39677;DHT22;27789;50.840;4.386;2022-11-20T13:27:59;9.00;99.90
39677;DHT22;27789;50.840;4.386;2022-11-20T13:30:27;8.90;99.90
39677;DHT22;27789;50.840;4.386;2022-11-20T13:33:06;8.90;99.90
39677;DHT22;27789;50.840;4.386;2022-11-20T13:35:37;8.90;99.90
39677;DHT22;27789;50.840;4.386;2022-11-20T13:38:14;8.80;99.90
39677;DHT22;27789;50.840;4.386;2022-11-20T13:43:34;8.80;99.90
39677;DHT22;27789;50.840;4.386;2022-11-20T13:46:03;8.80;99.90
39677;DHT22;27789;50.840;4.386;2022-11-20T13:48:34;8.80;99.90
39677;DHT22;27789;50.840;4.386;2022-11-20T13:56:43;8.90;99.90
39677;DHT22;27789;50.840;4.386;2022-11-20T14:02:01;8.90;99.90
39677;DHT22;27789;50.840;4.386;2022-11-20T14:04:33;8.90;99.90
39677;DHT22;27789;50.840;4.386;2022-11-20T14:07:00;9.00;99.90
39677;DHT22;27789;50.840;4.386;2022-11-20T14:09:29;9.00;99.90
39677;DHT22;27789;50.840;4.386;2022-11-20T14:11:55;9.10;99.90
39677;DHT22;27789;50.840;4.386;2022-11-20T14:14:26;9.00;99.90
39677;DHT22;27789;50.840;4.386;2022-11-20T14:16:53;8.90;99.90
39677;DHT22;27789;50.840;4.386;2022-11-20T14:19:29;8.90;99.90
39677;DHT22;27789;50.840;4.386;2022-11-20T14:22:08;8.80;99.90
39677;DHT22;27789;50.840;4.386;2022-11-20T14:24:34;8.80;99.90
39677;DHT22;27789;50.840;4.386;2022-11-20T14:26:59;8.80;99.90
39677;DHT22;27789;50.840;4.386;2022-11-20T14:29:33;8.80;99.90
39677;DHT22;27789;50.840;4.386;2022-11-20T14:31:59;8.80;99.90
39677;DHT22;27789;50.840;4.386;2022-11-20T14:34:28;8.80;99.90
39677;DHT22;27789;50.840;4.386;2022-11-20T14:37:00;8.70;99.90
39677;DHT22;27789;50.840;4.386;2022-11-20T14:39:37;8.80;99.90
39677;DHT22;27789;50.840;4.386;2022-11-20T14:42:19;8.80;99.90
39677;DHT22;27789;50.840;4.386;2022-11-20T14:44:45;8.90;99.90
39677;DHT22;27789;50.840;4.386;2022-11-20T14:47:17;8.90;99.90
39677;DHT22;27789;50.840;4.386;2022-11-20T14:49:44;8.80;99.90
39677;DHT22;27789;50.840;4.386;2022-11-20T14:52:16;8.90;99.90
39677;DHT22;27789;50.840;4.386;2022-11-20T14:54:47;9.00;99.90
39677;DHT22;27789;50.840;4.386;2022-11-20T14:57:31;9.00;99.90
39677;DHT22;27789;50.840;4.386;2022-11-20T15:00:18;9.00;99.90
39677;DHT22;27789;50.840;4.386;2022-11-20T15:02:46;9.00;99.90
39677;DHT22;27789;50.840;4.386;2022-11-20T15:05:13;8.90;99.90
39677;DHT22;27789;50.840;4.386;2022-11-20T15:07:42;8.90;99.90
39677;DHT22;27789;50.840;4.386;2022-11-20T15:10:21;9.00;99.90
39677;DHT22;27789;50.840;4.386;2022-11-20T15:12:54;9.00;99.90
39677;DHT22;27789;50.840;4.386;2022-11-20T15:18:03;9.20;99.90
39677;DHT22;27789;50.840;4.386;2022-11-20T15:20:32;9.20;99.90
39677;DHT22;27789;50.840;4.386;2022-11-20T15:22:58;9.20;99.90
39677;DHT22;27789;50.840;4.386;2022-11-20T15:25:24;9.30;99.90
39677;DHT22;27789;50.840;4.386;2022-11-20T15:27:54;9.30;99.90
39677;DHT22;27789;50.840;4.386;2022-11-20T15:30:21;9.30;99.90
39677;DHT22;27789;50.840;4.386;2022-11-20T15:32:47;9.30;99.90
39677;DHT22;27789;50.840;4.386;2022-11-20T15:35:14;9.30;99.90
39677;DHT22;27789;50.840;4.386;2022-11-20T15:37:41;9.30;99.90
39677;DHT22;27789;50.840;4.386;2022-11-20T15:40:08;9.40;99.90
39677;DHT22;27789;50.840;4.386;2022-11-20T15:42:34;9.40;99.90
39677;DHT22;27789;50.840;4.386;2022-11-20T15:45:00;9.40;99.90
39677;DHT22;27789;50.840;4.386;2022-11-20T15:47:32;9.50;99.90
39677;DHT22;27789;50.840;4.386;2022-11-20T15:49:58;9.50;99.90
39677;DHT22;27789;50.840;4.386;2022-11-20T15:52:24;9.50;99.90
39677;DHT22;27789;50.840;4.386;2022-11-20T15:54:50;9.50;99.90
39677;DHT22;27789;50.840;4.386;2022-11-20T15:57:15;9.40;99.90
39677;DHT22;27789;50.840;4.386;2022-11-20T15:59:41;9.50;99.90
39677;DHT22;27789;50.840;4.386;2022-11-20T16:02:14;9.50;99.90
39677;DHT22;27789;50.840;4.386;2022-11-20T16:04:40;9.50;99.90
39677;DHT22;27789;50.840;4.386;2022-11-20T16:07:06;9.60;99.90
39677;DHT22;27789;50.840;4.386;2022-11-20T16:09:32;9.60;99.90
39677;DHT22;27789;50.840;4.386;2022-11-20T16:11:58;9.60;99.90
39677;DHT22;27789;50.840;4.386;2022-11-20T16:14:25;9.60;99.90
39677;DHT22;27789;50.840;4.386;2022-11-20T16:17:02;9.70;99.90
39677;DHT22;27789;50.840;4.386;2022-11-20T16:19:28;9.70;99.90
39677;DHT22;27789;50.840;4.386;2022-11-20T16:21:53;9.70;99.90
39677;DHT22;27789;50.840;4.386;2022-11-20T16:24:19;9.70;99.90
39677;DHT22;27789;50.840;4.386;2022-11-20T16:26:45;9.70;99.90
39677;DHT22;27789;50.840;4.386;2022-11-20T16:29:10;9.70;99.90
39677;DHT22;27789;50.840;4.386;2022-11-20T16:31:37;9.70;99.90
39677;DHT22;27789;50.840;4.386;2022-11-20T16:34:05;9.70;99.90
39677;DHT22;27789;50.840;4.386;2022-11-20T16:36:32;9.60;99.90
39677;DHT22;27789;50.840;4.386;2022-11-20T16:39:00;9.60;99.90
39677;DHT22;27789;50.840;4.386;2022-11-20T16:41:27;9.70;99.90
39677;DHT22;27789;50.840;4.386;2022-11-20T16:43:55;9.70;99.90
39677;DHT22;27789;50.840;4.386;2022-11-20T16:46:25;9.70;99.90
39677;DHT22;27789;50.840;4.386;2022-11-20T16:48:53;9.70;99.90
39677;DHT22;27789;50.840;4.386;2022-11-20T16:51:20;9.80;99.90
39677;DHT22;27789;50.840;4.386;2022-11-20T16:53:45;9.70;99.90
39677;DHT22;27789;50.840;4.386;2022-11-20T16:56:16;9.70;99.90
39677;DHT22;27789;50.840;4.386;2022-11-20T16:58:43;9.70;99.90
39677;DHT22;27789;50.840;4.386;2022-11-20T17:01:10;9.80;99.90
39677;DHT22;27789;50.840;4.386;2022-11-20T17:03:38;9.80;99.90
39677;DHT22;27789;50.840;4.386;2022-11-20T17:06:14;9.80;99.90
39677;DHT22;27789;50.840;4.386;2022-11-20T17:08:40;9.90;99.90
39677;DHT22;27789;50.840;4.386;2022-11-20T17:11:11;9.90;99.90
39677;DHT22;27789;50.840;4.386;2022-11-20T17:13:37;9.90;99.90
39677;DHT22;27789;50.840;4.386;2022-11-20T17:16:10;9.90;99.90
39677;DHT22;27789;50.840;4.386;2022-11-20T17:18:36;9.90;99.90
39677;DHT22;27789;50.840;4.386;2022-11-20T17:21:03;9.90;99.90
39677;DHT22;27789;50.840;4.386;2022-11-20T17:23:38;10.00;99.90
39677;DHT22;27789;50.840;4.386;2022-11-20T17:26:06;9.90;99.90
39677;DHT22;27789;50.840;4.386;2022-11-20T17:28:32;9.90;99.90
39677;DHT22;27789;50.840;4.386;2022-11-20T17:31:06;9.90;99.90
39677;DHT22;27789;50.840;4.386;2022-11-20T17:33:37;9.90;99.90
39677;DHT22;27789;50.840;4.386;2022-11-20T17:36:05;9.90;99.90
39677;DHT22;27789;50.840;4.386;2022-11-20T17:38:31;10.00;99.90